SHMÚ vydal meteorologické výstrahy na VietorPoľadovica Zobraziť výstrahy

METAR

Letisková meteorologická správa METAR

Meteorologické informácie z ďalších profesionálnych meteorologických staníc SHMÚ zobrazené v tvare zodpovedajúcom pravidlám kódovania správ METAR sú uvedené v položke „METSYN

Informácie o správe METAR

10.12.2016 - 01:00 UTC

METAR LZIB 100100Z 30004KT 9999 FEW032 06/02 Q1027=
METAR LZKZ 100100Z VRB01KT 1000 R01/1700U BR OVC001 M02/M03 Q1026=
METAR LZPP 100100Z AUTO VRB02KT 8000 OVC026/// 04/03 Q1027=
METAR LZSL 100100Z 30003KT 200V010 9999 SCT030 00/M01 Q1025=
METAR LZTT 100100Z 26019KT 9999 FEW013 SCT023 04/02 Q1022=
METAR LZZI 100100Z VRB01KT 3000 BR OVC008 01/M00 Q1026=

10.12.2016 - 00:30 UTC

METAR LZIB 100030Z 29003KT 260V340 9999 BKN033 07/02 Q1027=
METAR LZKZ 100030Z 14003KT 1000 R01/1500D BR OVC002 M02/M03 Q1026=
METAR LZPP 100030Z AUTO VRB01KT 9000 OVC015/// 04/03 Q1027=
METAR LZSL 100030Z VRB02KT 9999 SCT027 03/02 Q1025=
METAR LZTT 100030Z 26017KT 9999 FEW013 SCT026 04/02 Q1022=
METAR LZZI 100030Z VRB01KT 3000 BR FEW005 BKN009 OVC018 01/M00
Q1026=

Údaje nie sú momentálne k dispozícii

skok na menu ↑


skok na začiatok stránky ↑